Time;durP1;ratioP1;P1;durP2;ratioP2;P2;SDS_P1;SDS_P2;PMS_P1;PMS_P2;Temp;Humidity;BMP_temperature;BMP_pressure;BME280_temperature;BME280_humidity;BME280_pressure;Samples;Min_cycle;Max_cycle;Signal;HPM_P1;HPM_P2
2021/01/03 00:01:42;;;;;;;36.90;22.40;;;0.70;1.00;;;;;;4930800;28;20226;-82
2021/01/03 00:04:11;;;;;;;34.30;24.52;;;0.80;1.00;;;;;;4940274;28;20226;-81
2021/01/03 00:07:24;;;;;;;39.67;22.10;;;0.80;1.00;;;;;;4922356;29;20323;-84
2021/01/03 00:09:50;;;;;;;32.50;22.45;;;0.90;1.00;;;;;;4930847;28;20241;-81
2021/01/03 00:12:17;;;;;;;34.95;22.98;;;0.90;1.00;;;;;;4919756;29;20329;-82
2021/01/03 00:15:09;;;;;;;34.95;20.77;;;1.00;1.00;;;;;;4921996;29;20733;-82
2021/01/03 00:17:36;;;;;;;36.20;21.85;;;1.00;1.00;;;;;;4918952;29;20642;-83
2021/01/03 00:20:07;;;;;;;35.90;22.30;;;1.10;1.00;;;;;;4922617;29;20290;-84
2021/01/03 00:22:33;;;;;;;31.58;21.25;;;1.10;1.00;;;;;;4922644;29;20389;-85
2021/01/03 00:25:00;;;;;;;41.28;24.25;;;1.10;1.00;;;;;;4919233;29;20241;-85
2021/01/03 00:27:26;;;;;;;36.53;23.90;;;1.20;1.00;;;;;;4916408;29;20321;-84
2021/01/03 00:29:53;;;;;;;34.85;21.55;;;1.20;1.00;;;;;;4918046;29;20265;-82
2021/01/03 00:32:19;;;;;;;36.70;20.98;;;1.30;1.00;;;;;;4919085;29;20337;-83
2021/01/03 00:34:46;;;;;;;34.83;21.90;;;1.30;1.00;;;;;;4920273;29;20230;-84
2021/01/03 00:37:13;;;;;;;33.05;20.23;;;1.30;1.00;;;;;;4919597;29;20238;-85
2021/01/03 00:39:39;;;;;;;32.00;21.40;;;1.30;1.00;;;;;;4919269;29;20261;-83
2021/01/03 00:42:05;;;;;;;36.15;20.48;;;1.30;1.00;;;;;;4920186;29;20273;-85
2021/01/03 00:44:32;;;;;;;33.00;20.13;;;1.40;1.00;;;;;;4920896;29;20365;-84
2021/01/03 00:46:58;;;;;;;29.83;20.13;;;1.40;1.00;;;;;;4920572;29;20237;-85
2021/01/03 00:49:24;;;;;;;32.30;20.90;;;1.40;1.00;;;;;;4920327;29;20233;-85
2021/01/03 00:51:51;;;;;;;31.42;20.27;;;1.40;1.00;;;;;;4915055;29;20372;-84
2021/01/03 00:54:18;;;;;;;28.05;19.15;;;1.40;1.00;;;;;;4919438;29;20305;-82
2021/01/03 00:56:44;;;;;;;29.35;19.45;;;1.40;1.00;;;;;;4930014;28;20211;-82
2021/01/03 00:59:10;;;;;;;29.00;20.52;;;1.30;1.00;;;;;;4937162;28;20301;-81
2021/01/03 01:01:37;;;;;;;29.30;19.95;;;1.20;1.00;;;;;;4927831;28;20246;-82
2021/01/03 01:04:03;;;;;;;28.65;19.42;;;1.20;1.00;;;;;;4910906;29;20282;-82
2021/01/03 01:06:29;;;;;;;26.27;17.58;;;1.10;1.00;;;;;;4915768;29;20237;-82
2021/01/03 01:08:55;;;;;;;26.95;17.88;;;1.10;1.00;;;;;;4912031;29;20328;-82
2021/01/03 01:11:24;;;;;;;30.05;20.50;;;1.10;1.00;;;;;;4914037;29;20305;-83
2021/01/03 01:13:51;;;;;;;29.48;17.92;;;1.20;1.00;;;;;;4915855;29;20737;-84
2021/01/03 01:16:17;;;;;;;25.13;17.45;;;1.20;1.00;;;;;;4914094;29;20242;-83
2021/01/03 01:18:43;;;;;;;28.58;19.35;;;1.10;1.00;;;;;;4909281;29;20234;-83
2021/01/03 01:21:09;;;;;;;25.27;18.38;;;1.20;1.00;;;;;;4913225;29;20242;-83
2021/01/03 01:23:36;;;;;;;27.42;19.33;;;1.10;1.00;;;;;;4914784;29;20234;-82
2021/01/03 01:26:02;;;;;;;27.08;19.50;;;1.10;1.00;;;;;;4910393;29;20792;-83
2021/01/03 01:28:30;;;;;;;29.00;19.10;;;1.20;1.00;;;;;;4912521;29;20241;-83
2021/01/03 01:30:56;;;;;;;28.55;17.88;;;1.20;1.00;;;;;;4914513;29;20236;-81
2021/01/03 01:33:23;;;;;;;27.08;20.10;;;1.20;1.00;;;;;;4915396;29;21194;-81
2021/01/03 01:35:49;;;;;;;25.70;18.10;;;1.20;1.00;;;;;;4915442;29;20329;-81
2021/01/03 01:38:15;;;;;;;30.98;19.52;;;1.20;1.00;;;;;;4914905;29;20261;-82
2021/01/03 01:40:43;;;;;;;26.63;18.02;;;1.30;1.00;;;;;;4904208;29;20238;-84
2021/01/03 01:43:17;;;;;;;27.73;20.50;;;1.30;1.00;;;;;;4914744;29;20242;-84
2021/01/03 01:45:46;;;;;;;29.92;19.70;;;1.40;1.00;;;;;;4912354;29;20231;-83
2021/01/03 01:48:15;;;;;;;26.33;18.50;;;1.30;1.00;;;;;;4913268;29;20218;-84
2021/01/03 01:50:45;;;;;;;24.13;16.95;;;1.40;1.00;;;;;;4915486;29;20246;-81
2021/01/03 01:53:17;;;;;;;25.63;17.10;;;1.40;1.00;;;;;;4914606;29;20291;-84
2021/01/03 01:55:51;;;;;;;25.40;16.58;;;1.40;1.00;;;;;;4915193;29;20242;-83
2021/01/03 01:58:25;;;;;;;27.15;16.90;;;1.50;1.00;;;;;;4914665;29;20249;-82
2021/01/03 02:00:58;;;;;;;24.13;14.90;;;1.40;1.00;;;;;;4916424;29;20233;-83
2021/01/03 02:03:34;;;;;;;23.00;15.00;;;1.40;1.00;;;;;;4912946;29;20701;-82
2021/01/03 02:06:06;;;;;;;23.75;13.70;;;1.40;1.00;;;;;;4911487;29;20321;-83
2021/01/03 02:08:36;;;;;;;23.48;15.15;;;1.40;1.00;;;;;;4913181;29;20297;-83
2021/01/03 02:11:06;;;;;;;22.80;14.60;;;1.50;1.00;;;;;;4914283;29;21124;-83
2021/01/03 02:13:36;;;;;;;21.05;14.20;;;1.40;1.00;;;;;;4911586;29;20313;-82
2021/01/03 02:16:06;;;;;;;21.20;13.40;;;1.40;1.00;;;;;;4915005;29;20622;-84
2021/01/03 02:18:33;;;;;;;20.17;14.45;;;1.40;1.00;;;;;;4914945;29;20223;-83
2021/01/03 02:21:08;;;;;;;21.02;14.32;;;1.40;1.00;;;;;;4915491;29;20246;-84
2021/01/03 02:23:42;;;;;;;22.90;15.48;;;1.40;1.00;;;;;;4928713;29;20254;-83
2021/01/03 02:26:11;;;;;;;17.85;13.30;;;1.40;1.00;;;;;;4914212;29;20226;-84
2021/01/03 02:28:40;;;;;;;24.73;14.88;;;1.50;1.00;;;;;;4915666;29;20230;-82
2021/01/03 02:31:08;;;;;;;21.67;13.90;;;1.50;1.00;;;;;;4915070;29;20282;-82
2021/01/03 02:33:38;;;;;;;20.48;14.75;;;1.50;1.00;;;;;;4913952;29;20287;-82
2021/01/03 02:36:10;;;;;;;20.80;13.25;;;1.40;1.00;;;;;;4911638;29;20231;-83
2021/01/03 02:38:40;;;;;;;18.60;12.73;;;1.40;1.00;;;;;;4915332;29;20252;-82
2021/01/03 02:41:18;;;;;;;22.77;13.45;;;1.40;1.00;;;;;;4912144;29;20879;-83
2021/01/03 02:43:45;;;;;;;20.33;12.10;;;1.30;1.00;;;;;;4913185;29;20241;-82
2021/01/03 02:46:12;;;;;;;14.85;11.77;;;1.40;1.00;;;;;;4913250;29;20744;-82
2021/01/03 02:48:39;;;;;;;23.00;13.35;;;1.30;1.00;;;;;;4913392;29;20223;-84
2021/01/03 02:51:05;;;;;;;20.48;15.57;;;1.30;1.00;;;;;;4913000;29;20231;-82
2021/01/03 02:53:31;;;;;;;16.17;12.50;;;1.30;1.00;;;;;;4917018;29;20335;-82
2021/01/03 02:55:57;;;;;;;18.27;12.88;;;1.40;1.00;;;;;;4916543;29;20321;-83
2021/01/03 02:58:24;;;;;;;24.73;12.27;;;1.40;1.00;;;;;;4916139;29;20237;-82
2021/01/03 03:00:51;;;;;;;18.95;12.45;;;1.40;1.00;;;;;;4917784;29;21028;-81
2021/01/03 03:03:17;;;;;;;16.50;11.48;;;1.40;1.00;;;;;;4936689;28;20270;-81
2021/01/03 03:05:45;;;;;;;19.80;12.48;;;1.50;1.00;;;;;;4919702;29;20222;-84
2021/01/03 03:08:11;;;;;;;18.02;12.27;;;1.50;1.00;;;;;;4926398;29;20237;-84
2021/01/03 03:10:42;;;;;;;19.95;12.65;;;1.50;1.00;;;;;;4937757;28;20251;-79
2021/01/03 03:13:08;;;;;;;18.10;12.70;;;1.50;1.00;;;;;;4934360;28;20235;-84
2021/01/03 03:15:35;;;;;;;22.13;12.80;;;1.50;1.00;;;;;;4915009;29;20238;-82
2021/01/03 03:18:03;;;;;;;16.88;13.13;;;1.60;1.00;;;;;;4915230;29;20301;-82
2021/01/03 03:20:29;;;;;;;24.05;12.68;;;1.60;1.00;;;;;;4926448;29;20222;-81
2021/01/03 03:22:55;;;;;;;20.85;14.50;;;1.60;1.00;;;;;;4916026;29;20325;-81
2021/01/03 03:25:23;;;;;;;17.80;11.55;;;1.70;1.00;;;;;;4913952;29;20254;-82
2021/01/03 03:27:49;;;;;;;18.63;12.10;;;1.70;1.00;;;;;;4914628;29;20234;-82
2021/01/03 03:30:19;;;;;;;17.80;12.35;;;1.70;1.00;;;;;;4912893;29;20768;-81
2021/01/03 03:32:51;;;;;;;17.70;12.05;;;1.80;1.00;;;;;;4916318;29;20218;-81
2021/01/03 03:35:20;;;;;;;13.60;11.77;;;1.80;1.00;;;;;;4916674;29;20240;-82
2021/01/03 03:37:47;;;;;;;16.13;11.70;;;1.70;1.00;;;;;;4917610;29;20210;-84
2021/01/03 03:40:14;;;;;;;15.88;11.20;;;1.70;1.00;;;;;;4913026;29;20318;-83
2021/01/03 03:42:40;;;;;;;16.23;11.65;;;1.70;1.00;;;;;;4918308;29;20309;-83
2021/01/03 03:45:08;;;;;;;14.50;10.90;;;1.70;1.00;;;;;;4917210;29;20741;-82
2021/01/03 03:47:35;;;;;;;16.80;10.65;;;1.70;1.00;;;;;;4917786;29;20230;-83
2021/01/03 03:50:03;;;;;;;12.80;9.77;;;1.70;1.00;;;;;;4915827;29;21004;-84
2021/01/03 03:52:29;;;;;;;14.98;10.88;;;1.70;1.00;;;;;;4918094;29;20246;-83
2021/01/03 03:54:56;;;;;;;13.43;9.38;;;1.70;1.00;;;;;;4916068;29;20238;-84
2021/01/03 03:57:22;;;;;;;12.80;8.60;;;1.70;1.00;;;;;;4911299;29;20231;-82
2021/01/03 03:59:48;;;;;;;13.35;8.48;;;1.70;1.00;;;;;;4913366;29;20230;-82
2021/01/03 04:02:15;;;;;;;11.38;8.10;;;1.70;1.00;;;;;;4919241;29;20242;-84
2021/01/03 04:04:41;;;;;;;11.32;8.70;;;1.70;1.00;;;;;;4918592;29;20245;-83
2021/01/03 04:07:08;;;;;;;12.10;8.68;;;1.70;1.00;;;;;;4917304;29;20234;-84
2021/01/03 04:09:34;;;;;;;12.82;8.93;;;1.70;1.00;;;;;;4915921;29;20230;-82
2021/01/03 04:12:00;;;;;;;11.43;8.65;;;1.80;1.00;;;;;;4916033;29;20403;-81
2021/01/03 04:14:27;;;;;;;10.90;8.18;;;1.80;1.00;;;;;;4916979;29;20720;-83
2021/01/03 04:16:55;;;;;;;12.93;9.30;;;1.80;1.00;;;;;;4917656;29;20366;-83
2021/01/03 04:19:22;;;;;;;13.13;9.45;;;1.80;1.00;;;;;;4915011;29;20761;-83
2021/01/03 04:21:52;;;;;;;13.63;9.63;;;1.90;1.00;;;;;;4917632;29;20265;-82
2021/01/03 04:24:20;;;;;;;11.43;9.10;;;1.90;1.00;;;;;;4931736;28;20742;-81
2021/01/03 04:26:51;;;;;;;12.18;9.95;;;1.90;1.00;;;;;;4915401;29;20234;-83
2021/01/03 04:29:18;;;;;;;13.55;10.23;;;2.00;1.00;;;;;;4916083;29;20241;-82
2021/01/03 04:31:44;;;;;;;15.15;9.70;;;2.00;1.00;;;;;;4915994;29;20234;-84
2021/01/03 04:34:11;;;;;;;12.43;8.63;;;2.00;1.00;;;;;;4917445;29;20241;-84
2021/01/03 04:36:39;;;;;;;14.68;8.13;;;2.10;1.00;;;;;;4915932;29;20697;-82
2021/01/03 04:39:06;;;;;;;12.40;8.65;;;2.10;1.00;;;;;;4915023;29;20227;-82
2021/01/03 04:41:37;;;;;;;14.88;9.70;;;2.10;1.00;;;;;;4915197;29;20699;-84
2021/01/03 04:44:08;;;;;;;10.30;8.05;;;2.10;1.00;;;;;;4918038;29;20831;-82
2021/01/03 04:46:39;;;;;;;14.10;8.80;;;2.20;1.00;;;;;;4918260;29;21611;-84
2021/01/03 04:49:13;;;;;;;14.95;11.10;;;2.10;1.00;;;;;;4917905;29;20302;-84
2021/01/03 04:52:00;;;;;;;11.15;9.05;;;2.10;1.00;;;;;;4913052;29;20226;-85
2021/01/03 04:54:26;;;;;;;12.95;8.98;;;2.10;1.00;;;;;;4919096;29;20218;-83
2021/01/03 04:56:56;;;;;;;10.65;9.55;;;2.10;1.00;;;;;;4917569;29;20223;-82
2021/01/03 04:59:36;;;;;;;10.75;7.47;;;2.10;1.00;;;;;;4918067;29;20234;-82
2021/01/03 05:02:34;;;;;;;11.70;9.35;;;2.10;1.00;;;;;;4914471;29;20294;-83
2021/01/03 05:05:22;;;;;;;12.48;9.40;;;2.10;1.00;;;;;;4911206;29;20249;-83
2021/01/03 05:07:57;;;;;;;11.57;8.80;;;2.10;1.00;;;;;;4927932;29;20265;-82
2021/01/03 05:10:27;;;;;;;12.15;8.55;;;2.10;1.00;;;;;;4930168;28;20238;-81
2021/01/03 05:13:02;;;;;;;14.02;9.55;;;2.10;1.00;;;;;;4953961;28;20334;-81
2021/01/03 05:15:31;;;;;;;15.10;9.93;;;2.00;1.00;;;;;;4940489;28;20218;-80
2021/01/03 05:17:57;;;;;;;11.80;9.32;;;2.00;1.00;;;;;;4941873;28;20242;-81
2021/01/03 05:20:24;;;;;;;16.35;11.30;;;2.00;1.00;;;;;;4941065;28;20278;-80
2021/01/03 05:22:51;;;;;;;16.23;9.07;;;2.00;1.00;;;;;;4932969;28;20325;-83
2021/01/03 05:25:20;;;;;;;16.00;11.15;;;1.90;1.00;;;;;;4920436;29;20262;-84
2021/01/03 05:28:02;;;;;;;12.80;10.02;;;1.90;1.00;;;;;;4924281;29;20234;-81
2021/01/03 05:30:29;;;;;;;13.23;9.90;;;1.90;1.00;;;;;;4918274;29;20304;-83
2021/01/03 05:33:05;;;;;;;14.55;10.57;;;1.90;1.00;;;;;;4919721;29;20634;-84
2021/01/03 05:35:37;;;;;;;13.75;10.82;;;1.90;1.00;;;;;;4931693;28;20282;-84
2021/01/03 05:38:04;;;;;;;15.90;11.40;;;1.90;1.00;;;;;;4918645;29;20348;-82
2021/01/03 05:40:33;;;;;;;14.90;11.02;;;1.90;1.00;;;;;;4915347;29;20226;-83
2021/01/03 05:43:10;;;;;;;16.63;10.98;;;2.00;1.00;;;;;;4916766;29;20326;-82
2021/01/03 05:45:42;;;;;;;17.33;12.00;;;1.90;1.00;;;;;;4914783;29;20281;-83
2021/01/03 05:48:21;;;;;;;14.38;11.45;;;2.00;1.00;;;;;;4917893;29;20265;-84
2021/01/03 05:50:47;;;;;;;15.73;10.77;;;2.00;1.00;;;;;;4914574;29;20328;-83
2021/01/03 05:53:19;;;;;;;15.10;10.88;;;1.90;1.00;;;;;;4914425;29;20954;-85
2021/01/03 05:55:56;;;;;;;15.25;10.75;;;1.90;1.00;;;;;;4914226;29;20218;-83
2021/01/03 05:58:29;;;;;;;16.17;12.15;;;1.90;1.00;;;;;;4915419;29;20236;-81
2021/01/03 06:01:07;;;;;;;14.30;11.25;;;1.90;1.00;;;;;;4915663;29;20234;-84
2021/01/03 06:03:33;;;;;;;14.10;11.18;;;1.90;1.00;;;;;;4914616;29;20253;-83
2021/01/03 06:06:08;;;;;;;14.50;11.00;;;1.80;1.00;;;;;;4914664;29;20234;-84
2021/01/03 06:08:37;;;;;;;15.02;11.15;;;1.80;1.00;;;;;;4912905;29;21057;-83
2021/01/03 06:11:13;;;;;;;14.50;10.75;;;1.80;1.00;;;;;;4914665;29;20237;-84
2021/01/03 06:13:49;;;;;;;12.25;9.30;;;1.70;1.00;;;;;;4916386;29;20226;-85
2021/01/03 06:16:18;;;;;;;12.45;9.77;;;1.70;1.00;;;;;;4920076;29;20249;-85
2021/01/03 06:18:48;;;;;;;11.85;9.85;;;1.70;1.00;;;;;;4935962;28;20234;-83
2021/01/03 06:21:24;;;;;;;13.65;9.90;;;1.60;1.00;;;;;;4928080;29;20222;-80
2021/01/03 06:24:09;;;;;;;13.55;9.45;;;1.60;1.00;;;;;;4913321;29;20277;-81
2021/01/03 06:26:38;;;;;;;12.25;9.45;;;1.60;1.00;;;;;;4912536;29;20293;-83
2021/01/03 06:29:17;;;;;;;14.73;9.82;;;1.60;1.00;;;;;;4914039;29;20312;-84
2021/01/03 06:32:12;;;;;;;13.52;9.55;;;1.70;1.00;;;;;;4928319;28;20675;-82
2021/01/03 06:34:41;;;;;;;12.68;9.30;;;1.70;1.00;;;;;;4916220;29;20305;-83
2021/01/03 06:37:12;;;;;;;13.38;10.98;;;1.70;1.00;;;;;;4914073;29;20228;-84
2021/01/03 06:39:48;;;;;;;12.35;8.57;;;1.70;1.00;;;;;;4911976;29;20293;-84
2021/01/03 06:42:35;;;;;;;15.75;10.80;;;1.70;1.00;;;;;;4915818;29;20692;-81
2021/01/03 06:45:44;;;;;;;11.68;8.80;;;1.70;1.00;;;;;;4915384;29;20218;-83
2021/01/03 06:48:46;;;;;;;14.40;9.85;;;1.70;1.00;;;;;;4912281;29;20614;-84
2021/01/03 06:51:46;;;;;;;16.38;9.75;;;1.70;1.00;;;;;;4914381;29;20230;-83
2021/01/03 06:54:43;;;;;;;14.55;10.30;;;1.70;1.00;;;;;;4915933;29;20294;-85
2021/01/03 06:57:21;;;;;;;12.70;9.70;;;1.80;1.00;;;;;;4913417;29;20252;-84
2021/01/03 07:00:08;;;;;;;13.23;9.32;;;1.80;1.00;;;;;;4916748;29;20229;-82
2021/01/03 07:02:42;;;;;;;13.75;10.35;;;1.80;1.00;;;;;;4913702;29;20238;-83
2021/01/03 07:05:09;;;;;;;14.50;10.27;;;1.70;1.00;;;;;;4919821;29;20236;-84
2021/01/03 07:07:38;;;;;;;14.10;10.82;;;1.70;1.00;;;;;;4909968;29;20375;-83
2021/01/03 07:10:08;;;;;;;15.00;10.85;;;1.60;1.00;;;;;;4916709;29;20257;-83
2021/01/03 07:12:39;;;;;;;14.13;10.02;;;1.60;1.00;;;;;;4914589;29;20262;-83
2021/01/03 07:15:12;;;;;;;15.23;11.65;;;1.60;1.00;;;;;;4917345;29;20282;-83
2021/01/03 07:18:02;;;;;;;15.05;10.65;;;1.60;1.00;;;;;;4914852;29;20713;-82
2021/01/03 07:20:33;;;;;;;16.27;11.35;;;1.50;1.00;;;;;;4915795;29;21540;-83
2021/01/03 07:23:13;;;;;;;15.32;11.20;;;1.50;1.00;;;;;;4916884;29;20246;-83
2021/01/03 07:25:51;;;;;;;17.13;11.93;;;1.50;1.00;;;;;;4914815;29;20260;-82
2021/01/03 07:28:23;;;;;;;17.55;11.63;;;1.50;1.00;;;;;;4916969;29;20226;-82
2021/01/03 07:30:59;;;;;;;20.05;12.57;;;1.60;1.00;;;;;;4919232;29;20230;-81
2021/01/03 07:34:01;;;;;;;15.63;10.77;;;1.60;1.00;;;;;;4915948;29;20266;-83
2021/01/03 07:36:42;;;;;;;17.52;11.88;;;1.60;1.00;;;;;;4930265;28;20225;-84
2021/01/03 07:39:13;;;;;;;16.60;11.70;;;1.60;1.00;;;;;;4923748;29;20230;-84
2021/01/03 07:41:42;;;;;;;16.05;10.85;;;1.60;1.00;;;;;;4917107;29;21055;-84
2021/01/03 07:44:10;;;;;;;15.98;10.30;;;1.60;1.00;;;;;;4915063;29;20238;-82
2021/01/03 07:46:55;;;;;;;16.42;11.77;;;1.60;1.00;;;;;;4914381;29;20288;-83
2021/01/03 07:49:43;;;;;;;17.77;11.05;;;1.50;1.00;;;;;;4918082;29;20234;-82
2021/01/03 07:52:37;;;;;;;17.58;12.52;;;1.60;1.00;;;;;;4918906;29;20254;-83
2021/01/03 07:55:05;;;;;;;17.52;11.80;;;1.50;1.00;;;;;;4919108;29;21150;-83
2021/01/03 07:57:31;;;;;;;21.58;13.27;;;1.50;1.00;;;;;;4918820;29;21041;-84
2021/01/03 07:59:59;;;;;;;18.25;12.05;;;1.40;1.00;;;;;;4923062;29;20854;-83
2021/01/03 08:02:29;;;;;;;15.00;11.68;;;1.40;1.00;;;;;;4918531;29;20244;-84
2021/01/03 08:04:59;;;;;;;15.43;11.60;;;1.40;1.00;;;;;;4918651;29;21131;-84
2021/01/03 08:07:25;;;;;;;19.20;12.80;;;1.40;1.00;;;;;;4921293;29;20229;-82
2021/01/03 08:09:52;;;;;;;17.02;12.00;;;1.40;1.00;;;;;;4919715;29;20709;-83
2021/01/03 08:12:23;;;;;;;15.82;11.75;;;1.30;1.00;;;;;;4918555;29;21094;-84
2021/01/03 08:14:58;;;;;;;16.92;11.50;;;1.30;1.00;;;;;;4917879;29;20226;-82
2021/01/03 08:17:29;;;;;;;18.25;12.50;;;1.30;1.00;;;;;;4919804;29;20336;-84
2021/01/03 08:20:03;;;;;;;17.95;12.77;;;1.30;1.00;;;;;;4920093;29;20238;-84
2021/01/03 08:22:31;;;;;;;17.02;13.93;;;1.30;1.00;;;;;;4916571;29;20227;-82
2021/01/03 08:25:02;;;;;;;14.07;12.02;;;1.30;1.00;;;;;;4919600;29;20321;-83
2021/01/03 08:27:57;;;;;;;16.55;11.95;;;1.30;1.00;;;;;;4917908;29;20245;-84
2021/01/03 08:30:37;;;;;;;17.23;13.18;;;1.20;1.00;;;;;;4919439;29;20256;-86
2021/01/03 08:33:22;;;;;;;19.95;14.02;;;1.20;1.00;;;;;;4919424;29;20316;-84
2021/01/03 08:39:29;;;;;;;19.45;12.88;;;1.20;1.00;;;;;;4913003;29;20222;-83
2021/01/03 08:42:31;;;;;;;16.77;12.65;;;1.20;1.00;;;;;;4915783;29;20245;-83
2021/01/03 08:45:05;;;;;;;21.15;14.43;;;1.20;1.00;;;;;;4915704;29;20230;-84
2021/01/03 08:47:44;;;;;;;19.90;13.27;;;1.20;1.00;;;;;;4918601;29;20305;-82
2021/01/03 08:53:59;;;;;;;18.75;12.60;;;1.10;1.00;;;;;;4915251;29;20257;-81
2021/01/03 08:57:11;;;;;;;25.63;13.93;;;1.20;1.00;;;;;;4875261;29;20307;-85
2021/01/03 08:59:52;;;;;;;17.30;12.35;;;1.20;1.00;;;;;;4916547;29;20348;-84
2021/01/03 09:05:22;;;;;;;15.20;12.10;;;1.20;1.00;;;;;;4919354;29;20258;-85
2021/01/03 09:07:54;;;;;;;14.82;11.65;;;1.10;1.00;;;;;;4932057;29;20237;-82
2021/01/03 09:11:03;;;;;;;18.23;12.60;;;1.10;1.00;;;;;;4930203;29;21111;-81
2021/01/03 09:16:56;;;;;;;17.75;12.45;;;1.10;1.00;;;;;;4923702;29;20226;-83
2021/01/03 09:19:48;;;;;;;14.63;11.30;;;1.10;1.00;;;;;;4927652;29;20234;-81
2021/01/03 09:22:39;;;;;;;16.50;12.18;;;1.10;1.00;;;;;;4919289;29;20244;-83
2021/01/03 09:25:19;;;;;;;14.52;12.07;;;1.10;1.00;;;;;;4937527;29;20234;-83
2021/01/03 09:28:19;;;;;;;17.05;11.55;;;1.00;1.00;;;;;;4938864;28;20285;-81
2021/01/03 09:30:56;;;;;;;17.15;11.15;;;1.10;1.00;;;;;;4937021;28;20294;-82
2021/01/03 09:33:27;;;;;;;14.85;11.20;;;1.10;1.00;;;;;;4935753;29;20201;-81
2021/01/03 09:36:33;;;;;;;17.75;10.90;;;1.10;1.00;;;;;;4931755;29;20260;-81
2021/01/03 09:39:54;;;;;;;16.25;10.65;;;1.00;1.00;;;;;;4950677;28;20219;-82
2021/01/03 09:42:47;;;;;;;20.15;12.52;;;1.00;1.00;;;;;;4934099;29;20230;-82
2021/01/03 09:45:54;;;;;;;17.88;11.38;;;1.00;1.00;;;;;;4935056;29;20221;-81
2021/01/03 09:49:11;;;;;;;17.80;10.35;;;1.00;1.00;;;;;;4921186;29;20235;-80
2021/01/03 09:51:53;;;;;;;15.10;11.38;;;1.00;1.00;;;;;;4930290;29;20247;-81
2021/01/03 09:54:24;;;;;;;15.90;11.70;;;1.00;1.00;;;;;;4930827;29;20253;-79
2021/01/03 09:57:28;;;;;;;15.18;11.50;;;1.10;1.00;;;;;;4926623;29;20226;-78
2021/01/03 09:59:56;;;;;;;23.00;15.27;;;1.00;1.00;;;;;;4926221;29;21079;-81
2021/01/03 10:02:23;;;;;;;17.95;13.98;;;1.00;1.00;;;;;;4928137;29;20311;-79
2021/01/03 10:04:50;;;;;;;13.10;11.05;;;1.00;1.00;;;;;;4929353;29;20234;-80
2021/01/03 10:07:21;;;;;;;13.82;11.05;;;1.00;1.00;;;;;;4928442;29;20230;-80
2021/01/03 10:09:53;;;;;;;14.52;10.73;;;1.00;1.00;;;;;;4924782;29;20701;-82
2021/01/03 10:12:35;;;;;;;14.85;10.80;;;1.00;1.00;;;;;;4931094;28;20240;-79
2021/01/03 10:15:15;;;;;;;16.10;9.52;;;1.00;1.00;;;;;;4938461;28;20202;-78
2021/01/03 10:17:43;;;;;;;14.68;10.63;;;1.00;1.00;;;;;;4925377;28;20249;-81
2021/01/03 10:20:35;;;;;;;13.60;11.02;;;1.00;1.00;;;;;;4918124;29;20321;-80
2021/01/03 10:23:02;;;;;;;14.82;10.20;;;1.00;1.00;;;;;;4913947;29;21062;-81
2021/01/03 10:25:29;;;;;;;12.55;10.13;;;1.00;1.00;;;;;;4915705;29;20244;-80
2021/01/03 10:28:03;;;;;;;13.70;9.80;;;1.00;1.00;;;;;;4918428;29;20250;-80
2021/01/03 10:30:29;;;;;;;14.45;11.73;;;1.10;1.00;;;;;;4916968;29;20329;-80
2021/01/03 10:32:56;;;;;;;14.13;10.73;;;1.10;1.00;;;;;;4923300;29;20253;-80
2021/01/03 10:35:23;;;;;;;15.40;10.70;;;1.10;1.00;;;;;;4921090;29;20305;-80
2021/01/03 10:37:49;;;;;;;12.75;9.30;;;1.10;1.00;;;;;;4924060;29;20250;-80
2021/01/03 10:40:18;;;;;;;12.57;10.23;;;1.20;1.00;;;;;;4922885;29;20344;-80
2021/01/03 10:42:44;;;;;;;14.65;10.27;;;1.20;1.00;;;;;;4924870;29;20254;-79
2021/01/03 10:45:12;;;;;;;13.00;9.55;;;1.10;1.00;;;;;;4925241;29;20234;-79
2021/01/03 10:47:38;;;;;;;15.27;10.80;;;1.20;1.00;;;;;;4920795;29;20254;-81
2021/01/03 10:50:05;;;;;;;13.93;10.45;;;1.20;1.00;;;;;;4921445;29;20313;-82
2021/01/03 10:52:52;;;;;;;13.43;10.07;;;1.20;1.00;;;;;;4920009;29;20234;-80
2021/01/03 10:55:22;;;;;;;13.98;9.73;;;1.20;1.00;;;;;;4921344;29;20237;-79
2021/01/03 10:57:50;;;;;;;14.20;9.85;;;1.20;1.00;;;;;;4923188;29;20222;-80
2021/01/03 11:00:19;;;;;;;11.40;8.80;;;1.20;1.00;;;;;;4921442;29;20333;-82
2021/01/03 11:02:46;;;;;;;11.95;10.45;;;1.20;1.00;;;;;;4934173;28;20257;-80
2021/01/03 11:05:13;;;;;;;13.45;9.80;;;1.20;1.00;;;;;;4919064;29;20245;-81
2021/01/03 11:07:39;;;;;;;11.02;9.52;;;1.20;1.00;;;;;;4910634;29;20309;-81
2021/01/03 11:10:10;;;;;;;17.60;10.85;;;1.20;1.00;;;;;;4919200;29;20230;-80
2021/01/03 11:12:37;;;;;;;10.93;9.48;;;1.20;1.00;;;;;;4935347;29;20270;-79
2021/01/03 11:15:04;;;;;;;11.27;9.02;;;1.20;1.00;;;;;;4939006;29;21005;-79
2021/01/03 11:17:31;;;;;;;14.02;11.13;;;1.20;1.00;;;;;;4939518;29;20227;-80
2021/01/03 11:19:57;;;;;;;13.75;9.68;;;1.20;1.00;;;;;;4942612;29;20301;-79
2021/01/03 11:22:23;;;;;;;11.75;8.55;;;1.20;1.00;;;;;;4943043;28;20226;-82
2021/01/03 11:24:50;;;;;;;12.90;9.90;;;1.20;1.00;;;;;;4928548;29;20242;-82
2021/01/03 11:27:20;;;;;;;10.55;8.75;;;1.30;1.00;;;;;;4929765;29;20230;-81
2021/01/03 11:29:47;;;;;;;12.57;9.52;;;1.30;1.00;;;;;;4928740;29;20230;-81
2021/01/03 11:32:16;;;;;;;12.55;9.85;;;1.30;1.00;;;;;;4930706;29;20253;-81
2021/01/03 11:34:42;;;;;;;13.85;9.38;;;1.30;1.00;;;;;;4929199;29;20229;-80
2021/01/03 11:37:11;;;;;;;12.88;9.43;;;1.30;1.00;;;;;;4929232;29;20542;-81
2021/01/03 11:39:39;;;;;;;13.88;8.45;;;1.40;1.00;;;;;;4926890;29;20272;-81
2021/01/03 11:42:10;;;;;;;10.48;8.60;;;1.40;1.00;;;;;;4925639;29;20256;-80
2021/01/03 11:44:38;;;;;;;12.95;10.98;;;1.40;1.00;;;;;;4927173;29;20242;-79
2021/01/03 11:47:08;;;;;;;11.07;9.50;;;1.40;1.00;;;;;;4928625;29;20240;-79
2021/01/03 11:49:34;;;;;;;13.80;9.27;;;1.40;1.00;;;;;;4929784;29;20226;-79
2021/01/03 11:52:02;;;;;;;8.95;7.43;;;1.40;1.00;;;;;;4922949;29;20393;-80
2021/01/03 11:54:28;;;;;;;12.18;9.50;;;1.40;1.00;;;;;;4926048;29;20318;-79
2021/01/03 11:56:55;;;;;;;12.35;9.38;;;1.50;1.00;;;;;;4927860;29;20264;-80
2021/01/03 11:59:21;;;;;;;9.80;7.55;;;1.60;1.00;;;;;;4926757;29;20237;-80
2021/01/03 12:01:48;;;;;;;11.25;9.48;;;1.50;1.00;;;;;;4926607;29;20717;-81
2021/01/03 12:04:15;;;;;;;14.25;9.68;;;1.50;1.00;;;;;;4929711;29;20285;-80
2021/01/03 12:06:41;;;;;;;10.75;8.68;;;1.50;1.00;;;;;;4928958;29;20305;-80
2021/01/03 12:09:07;;;;;;;9.05;7.75;;;1.50;1.00;;;;;;4929927;29;20234;-81
2021/01/03 12:11:33;;;;;;;9.68;7.93;;;1.60;1.00;;;;;;4926648;29;20226;-80
2021/01/03 12:14:04;;;;;;;9.82;7.65;;;1.50;1.00;;;;;;4928804;29;20234;-80
2021/01/03 12:16:34;;;;;;;9.73;7.50;;;1.50;1.00;;;;;;4926062;29;20269;-81
2021/01/03 12:19:00;;;;;;;9.00;7.85;;;1.50;1.00;;;;;;4925836;29;20305;-81
2021/01/03 12:21:42;;;;;;;8.57;7.15;;;1.50;1.00;;;;;;4925346;29;20301;-82
2021/01/03 12:24:25;;;;;;;8.85;7.65;;;1.50;1.00;;;;;;4924602;29;20241;-83
2021/01/03 12:29:57;;;;;;;9.95;7.07;;;1.60;1.00;;;;;;4925472;29;20294;-85
2021/01/03 12:32:24;;;;;;;8.40;7.35;;;1.60;1.00;;;;;;4922279;29;20245;-82
2021/01/03 12:35:25;;;;;;;9.80;7.47;;;1.50;1.00;;;;;;4928149;28;20343;-85
2021/01/03 12:37:53;;;;;;;9.43;7.88;;;1.50;1.00;;;;;;4916995;29;20688;-83
2021/01/03 12:40:41;;;;;;;9.63;8.23;;;1.50;1.00;;;;;;4919761;29;21499;-84
2021/01/03 12:43:13;;;;;;;8.45;7.10;;;1.50;1.00;;;;;;4922751;29;20274;-82
2021/01/03 12:45:44;;;;;;;8.63;7.55;;;1.50;1.00;;;;;;4930663;29;20242;-84
2021/01/03 12:48:11;;;;;;;8.30;7.45;;;1.50;1.00;;;;;;4922610;29;20226;-82
2021/01/03 12:50:37;;;;;;;9.85;7.90;;;1.50;1.00;;;;;;4922426;29;21174;-81
2021/01/03 12:53:04;;;;;;;8.77;7.22;;;1.50;1.00;;;;;;4922370;29;20394;-82
2021/01/03 12:55:30;;;;;;;9.95;8.10;;;1.50;1.00;;;;;;4923768;29;20230;-82
2021/01/03 12:57:57;;;;;;;7.90;7.07;;;1.50;1.00;;;;;;4920877;29;20253;-81
2021/01/03 13:00:23;;;;;;;8.52;7.63;;;1.50;1.00;;;;;;4920700;29;20342;-82
2021/01/03 13:02:50;;;;;;;9.57;7.95;;;1.50;1.00;;;;;;4922594;29;20332;-82
2021/01/03 13:05:17;;;;;;;10.82;8.00;;;1.50;1.00;;;;;;4923477;29;20294;-81
2021/01/03 13:07:43;;;;;;;13.77;8.27;;;1.50;1.00;;;;;;4925134;29;20295;-83
2021/01/03 13:10:12;;;;;;;9.02;6.85;;;1.50;1.00;;;;;;4927338;29;20238;-81
2021/01/03 13:12:39;;;;;;;8.65;7.22;;;1.50;1.00;;;;;;4922322;29;20381;-85
2021/01/03 13:15:08;;;;;;;8.50;6.82;;;1.50;1.00;;;;;;4921438;29;20230;-81
2021/01/03 13:17:34;;;;;;;7.07;6.10;;;1.50;1.00;;;;;;4919972;29;20292;-85
2021/01/03 13:20:00;;;;;;;8.10;6.60;;;1.50;1.00;;;;;;4920725;29;20234;-84
2021/01/03 13:22:27;;;;;;;9.30;7.45;;;1.60;1.00;;;;;;4933211;29;20245;-82
2021/01/03 13:24:53;;;;;;;9.43;8.20;;;1.60;1.00;;;;;;4920275;29;20282;-82
2021/01/03 13:27:20;;;;;;;8.38;6.55;;;1.60;1.00;;;;;;4919067;29;20238;-81
2021/01/03 13:29:46;;;;;;;9.30;6.30;;;1.60;1.00;;;;;;4921436;29;20242;-83
2021/01/03 13:32:12;;;;;;;9.02;6.93;;;1.60;1.00;;;;;;4920947;29;21225;-82
2021/01/03 13:34:38;;;;;;;9.55;7.00;;;1.60;1.00;;;;;;4922594;29;20934;-81
2021/01/03 13:37:05;;;;;;;8.60;7.70;;;1.60;1.00;;;;;;4915743;29;20230;-83